sensor_id;sensor_type;location;lat;lon;timestamp;P1;durP1;ratioP1;P2;durP2;ratioP2
71836;SDS011;59686;51.716;7.016;2022-12-20T00:01:20;4.40;;;3.00;;
71836;SDS011;59686;51.716;7.016;2022-12-20T00:06:43;3.90;;;3.27;;
71836;SDS011;59686;51.716;7.016;2022-12-20T00:09:10;4.00;;;2.90;;
71836;SDS011;59686;51.716;7.016;2022-12-20T00:11:39;4.30;;;2.83;;
71836;SDS011;59686;51.716;7.016;2022-12-20T00:14:06;3.50;;;2.80;;
71836;SDS011;59686;51.716;7.016;2022-12-20T00:16:33;4.43;;;2.90;;
71836;SDS011;59686;51.716;7.016;2022-12-20T00:19:00;5.50;;;3.20;;
71836;SDS011;59686;51.716;7.016;2022-12-20T00:21:28;5.07;;;3.23;;
71836;SDS011;59686;51.716;7.016;2022-12-20T00:23:55;3.27;;;2.73;;
71836;SDS011;59686;51.716;7.016;2022-12-20T00:26:22;3.50;;;2.63;;
71836;SDS011;59686;51.716;7.016;2022-12-20T00:28:49;4.37;;;3.10;;
71836;SDS011;59686;51.716;7.016;2022-12-20T00:31:16;4.23;;;2.87;;
71836;SDS011;59686;51.716;7.016;2022-12-20T00:33:46;5.67;;;2.70;;
71836;SDS011;59686;51.716;7.016;2022-12-20T00:36:13;3.93;;;2.60;;
71836;SDS011;59686;51.716;7.016;2022-12-20T00:38:39;4.03;;;2.90;;
71836;SDS011;59686;51.716;7.016;2022-12-20T00:41:10;3.20;;;2.43;;
71836;SDS011;59686;51.716;7.016;2022-12-20T00:43:38;4.67;;;3.10;;
71836;SDS011;59686;51.716;7.016;2022-12-20T00:46:13;3.80;;;2.77;;
71836;SDS011;59686;51.716;7.016;2022-12-20T00:48:39;4.23;;;2.97;;
71836;SDS011;59686;51.716;7.016;2022-12-20T00:51:06;3.57;;;2.50;;
71836;SDS011;59686;51.716;7.016;2022-12-20T00:53:37;3.80;;;2.30;;
71836;SDS011;59686;51.716;7.016;2022-12-20T00:56:03;4.40;;;2.47;;
71836;SDS011;59686;51.716;7.016;2022-12-20T00:58:30;3.63;;;2.70;;
71836;SDS011;59686;51.716;7.016;2022-12-20T01:00:59;3.53;;;2.70;;
71836;SDS011;59686;51.716;7.016;2022-12-20T01:03:25;3.03;;;2.50;;
71836;SDS011;59686;51.716;7.016;2022-12-20T01:05:59;4.63;;;2.50;;
71836;SDS011;59686;51.716;7.016;2022-12-20T01:08:29;4.90;;;3.03;;
71836;SDS011;59686;51.716;7.016;2022-12-20T01:11:09;4.60;;;2.47;;
71836;SDS011;59686;51.716;7.016;2022-12-20T01:13:47;3.17;;;2.73;;
71836;SDS011;59686;51.716;7.016;2022-12-20T01:16:25;4.10;;;2.60;;
71836;SDS011;59686;51.716;7.016;2022-12-20T01:18:53;3.57;;;2.50;;
71836;SDS011;59686;51.716;7.016;2022-12-20T01:21:19;4.13;;;2.80;;
71836;SDS011;59686;51.716;7.016;2022-12-20T01:23:47;3.47;;;2.57;;
71836;SDS011;59686;51.716;7.016;2022-12-20T01:26:14;2.90;;;2.30;;
71836;SDS011;59686;51.716;7.016;2022-12-20T01:28:42;3.87;;;2.63;;
71836;SDS011;59686;51.716;7.016;2022-12-20T01:33:48;2.67;;;2.37;;
71836;SDS011;59686;51.716;7.016;2022-12-20T01:36:36;4.27;;;2.40;;
71836;SDS011;59686;51.716;7.016;2022-12-20T01:39:11;4.23;;;2.57;;
71836;SDS011;59686;51.716;7.016;2022-12-20T01:41:38;3.97;;;2.40;;
71836;SDS011;59686;51.716;7.016;2022-12-20T01:44:05;3.80;;;2.37;;
71836;SDS011;59686;51.716;7.016;2022-12-20T01:46:50;3.40;;;2.47;;
71836;SDS011;59686;51.716;7.016;2022-12-20T01:49:21;3.20;;;2.23;;
71836;SDS011;59686;51.716;7.016;2022-12-20T01:51:51;2.80;;;2.00;;
71836;SDS011;59686;51.716;7.016;2022-12-20T01:54:21;4.33;;;2.37;;
71836;SDS011;59686;51.716;7.016;2022-12-20T01:56:56;5.00;;;2.60;;
71836;SDS011;59686;51.716;7.016;2022-12-20T01:59:25;3.70;;;2.50;;
71836;SDS011;59686;51.716;7.016;2022-12-20T02:01:52;3.60;;;2.30;;
71836;SDS011;59686;51.716;7.016;2022-12-20T02:04:21;3.20;;;2.30;;
71836;SDS011;59686;51.716;7.016;2022-12-20T02:06:48;2.60;;;2.10;;
71836;SDS011;59686;51.716;7.016;2022-12-20T02:09:13;2.70;;;2.00;;
71836;SDS011;59686;51.716;7.016;2022-12-20T02:11:53;4.00;;;2.63;;
71836;SDS011;59686;51.716;7.016;2022-12-20T02:20:03;3.13;;;2.37;;
71836;SDS011;59686;51.716;7.016;2022-12-20T02:31:04;3.93;;;2.30;;
71836;SDS011;59686;51.716;7.016;2022-12-20T02:33:35;3.83;;;2.57;;
71836;SDS011;59686;51.716;7.016;2022-12-20T02:36:03;2.77;;;2.20;;
71836;SDS011;59686;51.716;7.016;2022-12-20T02:38:36;3.07;;;2.07;;
71836;SDS011;59686;51.716;7.016;2022-12-20T02:44:06;3.67;;;2.23;;
71836;SDS011;59686;51.716;7.016;2022-12-20T02:46:54;3.30;;;2.40;;
71836;SDS011;59686;51.716;7.016;2022-12-20T02:49:23;3.27;;;2.10;;
71836;SDS011;59686;51.716;7.016;2022-12-20T02:54:55;2.73;;;2.20;;
71836;SDS011;59686;51.716;7.016;2022-12-20T02:57:27;2.80;;;2.13;;
71836;SDS011;59686;51.716;7.016;2022-12-20T03:00:13;3.33;;;2.10;;
71836;SDS011;59686;51.716;7.016;2022-12-20T03:02:41;3.47;;;2.60;;
71836;SDS011;59686;51.716;7.016;2022-12-20T03:05:42;4.13;;;2.20;;
71836;SDS011;59686;51.716;7.016;2022-12-20T03:08:10;2.53;;;2.10;;
71836;SDS011;59686;51.716;7.016;2022-12-20T03:10:36;3.73;;;2.20;;
71836;SDS011;59686;51.716;7.016;2022-12-20T03:13:02;3.87;;;2.00;;
71836;SDS011;59686;51.716;7.016;2022-12-20T03:15:28;2.80;;;2.17;;
71836;SDS011;59686;51.716;7.016;2022-12-20T03:17:53;2.30;;;2.00;;
71836;SDS011;59686;51.716;7.016;2022-12-20T03:20:19;3.23;;;2.07;;
71836;SDS011;59686;51.716;7.016;2022-12-20T03:22:46;2.70;;;2.40;;
71836;SDS011;59686;51.716;7.016;2022-12-20T03:25:12;4.10;;;2.30;;
71836;SDS011;59686;51.716;7.016;2022-12-20T03:27:38;3.53;;;2.70;;
71836;SDS011;59686;51.716;7.016;2022-12-20T03:30:04;4.30;;;2.63;;
71836;SDS011;59686;51.716;7.016;2022-12-20T03:32:30;2.87;;;2.50;;
71836;SDS011;59686;51.716;7.016;2022-12-20T03:34:56;3.50;;;2.40;;
71836;SDS011;59686;51.716;7.016;2022-12-20T03:37:21;4.57;;;2.53;;
71836;SDS011;59686;51.716;7.016;2022-12-20T03:39:47;3.23;;;2.60;;
71836;SDS011;59686;51.716;7.016;2022-12-20T03:42:16;3.40;;;2.80;;
71836;SDS011;59686;51.716;7.016;2022-12-20T03:44:42;3.13;;;2.40;;
71836;SDS011;59686;51.716;7.016;2022-12-20T03:47:07;3.33;;;2.40;;
71836;SDS011;59686;51.716;7.016;2022-12-20T03:49:33;5.47;;;2.43;;
71836;SDS011;59686;51.716;7.016;2022-12-20T03:51:59;4.23;;;2.70;;
71836;SDS011;59686;51.716;7.016;2022-12-20T03:54:25;4.40;;;2.70;;
71836;SDS011;59686;51.716;7.016;2022-12-20T03:56:51;3.70;;;2.40;;
71836;SDS011;59686;51.716;7.016;2022-12-20T03:59:17;4.10;;;2.50;;
71836;SDS011;59686;51.716;7.016;2022-12-20T04:01:43;4.53;;;2.90;;
71836;SDS011;59686;51.716;7.016;2022-12-20T04:04:09;3.27;;;2.70;;
71836;SDS011;59686;51.716;7.016;2022-12-20T04:06:36;3.53;;;2.40;;
71836;SDS011;59686;51.716;7.016;2022-12-20T04:09:15;3.77;;;2.80;;
71836;SDS011;59686;51.716;7.016;2022-12-20T04:11:41;4.13;;;2.90;;
71836;SDS011;59686;51.716;7.016;2022-12-20T04:14:06;4.20;;;3.13;;
71836;SDS011;59686;51.716;7.016;2022-12-20T04:16:32;5.80;;;3.80;;
71836;SDS011;59686;51.716;7.016;2022-12-20T04:18:58;4.17;;;3.43;;
71836;SDS011;59686;51.716;7.016;2022-12-20T04:24:11;6.30;;;4.03;;
71836;SDS011;59686;51.716;7.016;2022-12-20T04:26:37;6.47;;;4.27;;
71836;SDS011;59686;51.716;7.016;2022-12-20T04:29:03;6.67;;;4.17;;
71836;SDS011;59686;51.716;7.016;2022-12-20T04:31:28;6.07;;;3.80;;
71836;SDS011;59686;51.716;7.016;2022-12-20T04:33:54;5.00;;;4.00;;
71836;SDS011;59686;51.716;7.016;2022-12-20T04:36:27;4.50;;;3.37;;
71836;SDS011;59686;51.716;7.016;2022-12-20T04:38:52;7.60;;;3.97;;
71836;SDS011;59686;51.716;7.016;2022-12-20T04:41:19;4.17;;;3.30;;
71836;SDS011;59686;51.716;7.016;2022-12-20T04:43:51;6.47;;;3.60;;
71836;SDS011;59686;51.716;7.016;2022-12-20T04:46:19;3.70;;;3.17;;
71836;SDS011;59686;51.716;7.016;2022-12-20T04:48:49;5.60;;;3.83;;
71836;SDS011;59686;51.716;7.016;2022-12-20T04:51:15;5.50;;;3.60;;
71836;SDS011;59686;51.716;7.016;2022-12-20T04:53:41;4.13;;;3.20;;
71836;SDS011;59686;51.716;7.016;2022-12-20T04:58:47;5.23;;;3.10;;
71836;SDS011;59686;51.716;7.016;2022-12-20T05:01:16;5.03;;;3.10;;
71836;SDS011;59686;51.716;7.016;2022-12-20T05:03:42;6.63;;;3.37;;
71836;SDS011;59686;51.716;7.016;2022-12-20T05:06:08;5.03;;;3.50;;
71836;SDS011;59686;51.716;7.016;2022-12-20T05:08:34;4.73;;;3.30;;
71836;SDS011;59686;51.716;7.016;2022-12-20T05:11:00;3.77;;;3.27;;
71836;SDS011;59686;51.716;7.016;2022-12-20T05:13:26;3.93;;;3.00;;
71836;SDS011;59686;51.716;7.016;2022-12-20T05:15:52;4.43;;;3.30;;
71836;SDS011;59686;51.716;7.016;2022-12-20T05:18:19;5.13;;;3.40;;
71836;SDS011;59686;51.716;7.016;2022-12-20T05:20:46;4.63;;;3.13;;
71836;SDS011;59686;51.716;7.016;2022-12-20T05:23:11;3.47;;;2.93;;
71836;SDS011;59686;51.716;7.016;2022-12-20T05:25:56;4.23;;;3.37;;
71836;SDS011;59686;51.716;7.016;2022-12-20T05:28:41;6.03;;;3.60;;
71836;SDS011;59686;51.716;7.016;2022-12-20T05:31:07;5.77;;;3.57;;
71836;SDS011;59686;51.716;7.016;2022-12-20T05:33:32;5.37;;;2.93;;
71836;SDS011;59686;51.716;7.016;2022-12-20T05:35:58;4.23;;;2.97;;
71836;SDS011;59686;51.716;7.016;2022-12-20T05:38:24;4.53;;;3.27;;
71836;SDS011;59686;51.716;7.016;2022-12-20T05:40:49;4.97;;;3.50;;
71836;SDS011;59686;51.716;7.016;2022-12-20T05:43:16;5.03;;;3.30;;
71836;SDS011;59686;51.716;7.016;2022-12-20T05:45:46;4.20;;;3.60;;
71836;SDS011;59686;51.716;7.016;2022-12-20T05:48:13;3.73;;;2.97;;
71836;SDS011;59686;51.716;7.016;2022-12-20T05:50:40;5.53;;;3.13;;
71836;SDS011;59686;51.716;7.016;2022-12-20T05:53:08;3.70;;;3.37;;
71836;SDS011;59686;51.716;7.016;2022-12-20T05:58:12;4.37;;;3.03;;
71836;SDS011;59686;51.716;7.016;2022-12-20T06:00:41;5.47;;;3.13;;
71836;SDS011;59686;51.716;7.016;2022-12-20T06:03:08;4.03;;;3.23;;
71836;SDS011;59686;51.716;7.016;2022-12-20T06:05:36;5.13;;;3.53;;
71836;SDS011;59686;51.716;7.016;2022-12-20T06:08:03;5.77;;;3.40;;
71836;SDS011;59686;51.716;7.016;2022-12-20T06:10:30;3.67;;;3.20;;
71836;SDS011;59686;51.716;7.016;2022-12-20T06:12:56;5.87;;;3.30;;
71836;SDS011;59686;51.716;7.016;2022-12-20T06:15:22;4.77;;;3.30;;
71836;SDS011;59686;51.716;7.016;2022-12-20T06:17:47;4.90;;;3.23;;
71836;SDS011;59686;51.716;7.016;2022-12-20T06:20:15;5.13;;;3.27;;
71836;SDS011;59686;51.716;7.016;2022-12-20T06:22:41;3.93;;;3.00;;
71836;SDS011;59686;51.716;7.016;2022-12-20T06:25:06;4.70;;;3.60;;
71836;SDS011;59686;51.716;7.016;2022-12-20T06:27:33;4.43;;;3.40;;
71836;SDS011;59686;51.716;7.016;2022-12-20T06:30:00;5.00;;;3.10;;
71836;SDS011;59686;51.716;7.016;2022-12-20T06:32:26;5.60;;;3.80;;
71836;SDS011;59686;51.716;7.016;2022-12-20T06:34:52;5.37;;;3.67;;
71836;SDS011;59686;51.716;7.016;2022-12-20T06:37:18;5.63;;;3.70;;
71836;SDS011;59686;51.716;7.016;2022-12-20T06:39:44;4.70;;;3.70;;
71836;SDS011;59686;51.716;7.016;2022-12-20T06:42:09;4.97;;;3.50;;
71836;SDS011;59686;51.716;7.016;2022-12-20T06:44:35;6.03;;;4.13;;
71836;SDS011;59686;51.716;7.016;2022-12-20T06:47:01;5.10;;;3.63;;
71836;SDS011;59686;51.716;7.016;2022-12-20T06:49:26;4.97;;;3.30;;
71836;SDS011;59686;51.716;7.016;2022-12-20T06:52:03;4.97;;;3.53;;
71836;SDS011;59686;51.716;7.016;2022-12-20T06:54:29;7.40;;;3.63;;
71836;SDS011;59686;51.716;7.016;2022-12-20T06:56:54;4.23;;;3.10;;
71836;SDS011;59686;51.716;7.016;2022-12-20T06:59:20;5.13;;;3.30;;
71836;SDS011;59686;51.716;7.016;2022-12-20T07:01:45;5.03;;;3.13;;
71836;SDS011;59686;51.716;7.016;2022-12-20T07:04:11;3.67;;;3.30;;
71836;SDS011;59686;51.716;7.016;2022-12-20T07:06:37;6.00;;;3.27;;
71836;SDS011;59686;51.716;7.016;2022-12-20T07:09:02;4.23;;;3.37;;
71836;SDS011;59686;51.716;7.016;2022-12-20T07:11:28;5.30;;;3.43;;
71836;SDS011;59686;51.716;7.016;2022-12-20T07:13:54;4.90;;;3.50;;
71836;SDS011;59686;51.716;7.016;2022-12-20T07:16:21;5.40;;;3.50;;
71836;SDS011;59686;51.716;7.016;2022-12-20T07:18:48;6.20;;;3.60;;
71836;SDS011;59686;51.716;7.016;2022-12-20T07:21:15;5.33;;;3.60;;
71836;SDS011;59686;51.716;7.016;2022-12-20T07:23:41;6.13;;;3.60;;
71836;SDS011;59686;51.716;7.016;2022-12-20T07:26:07;5.57;;;3.17;;
71836;SDS011;59686;51.716;7.016;2022-12-20T07:28:34;5.70;;;3.60;;
71836;SDS011;59686;51.716;7.016;2022-12-20T07:31:00;6.23;;;3.80;;
71836;SDS011;59686;51.716;7.016;2022-12-20T07:33:27;4.93;;;3.47;;
71836;SDS011;59686;51.716;7.016;2022-12-20T07:35:58;3.77;;;3.17;;
71836;SDS011;59686;51.716;7.016;2022-12-20T07:38:28;4.93;;;3.43;;
71836;SDS011;59686;51.716;7.016;2022-12-20T07:40:54;4.63;;;3.53;;
71836;SDS011;59686;51.716;7.016;2022-12-20T07:45:55;4.37;;;3.30;;
71836;SDS011;59686;51.716;7.016;2022-12-20T07:48:21;4.83;;;2.93;;
71836;SDS011;59686;51.716;7.016;2022-12-20T07:50:48;4.27;;;2.90;;
71836;SDS011;59686;51.716;7.016;2022-12-20T07:53:16;3.60;;;3.00;;
71836;SDS011;59686;51.716;7.016;2022-12-20T07:55:43;6.87;;;3.30;;
71836;SDS011;59686;51.716;7.016;2022-12-20T07:58:09;5.27;;;3.43;;
71836;SDS011;59686;51.716;7.016;2022-12-20T08:00:37;3.33;;;3.03;;
71836;SDS011;59686;51.716;7.016;2022-12-20T08:03:07;3.27;;;2.77;;
71836;SDS011;59686;51.716;7.016;2022-12-20T08:05:36;4.30;;;3.33;;
71836;SDS011;59686;51.716;7.016;2022-12-20T08:08:05;6.47;;;3.33;;
71836;SDS011;59686;51.716;7.016;2022-12-20T08:10:32;5.43;;;3.97;;
71836;SDS011;59686;51.716;7.016;2022-12-20T08:12:58;6.87;;;3.80;;
71836;SDS011;59686;51.716;7.016;2022-12-20T08:18:09;8.53;;;3.77;;
71836;SDS011;59686;51.716;7.016;2022-12-20T08:20:35;8.00;;;4.10;;
71836;SDS011;59686;51.716;7.016;2022-12-20T08:23:04;6.43;;;3.97;;
71836;SDS011;59686;51.716;7.016;2022-12-20T08:25:29;7.20;;;4.50;;
71836;SDS011;59686;51.716;7.016;2022-12-20T08:28:05;8.63;;;4.50;;
71836;SDS011;59686;51.716;7.016;2022-12-20T08:30:31;7.20;;;4.43;;
71836;SDS011;59686;51.716;7.016;2022-12-20T08:32:56;7.33;;;4.33;;
71836;SDS011;59686;51.716;7.016;2022-12-20T08:35:22;5.87;;;3.97;;
71836;SDS011;59686;51.716;7.016;2022-12-20T08:37:51;7.13;;;4.23;;
71836;SDS011;59686;51.716;7.016;2022-12-20T08:40:17;6.17;;;4.33;;
71836;SDS011;59686;51.716;7.016;2022-12-20T08:42:43;5.60;;;3.80;;
71836;SDS011;59686;51.716;7.016;2022-12-20T08:45:09;6.13;;;4.10;;
71836;SDS011;59686;51.716;7.016;2022-12-20T08:47:35;5.87;;;3.70;;
71836;SDS011;59686;51.716;7.016;2022-12-20T08:50:04;5.37;;;3.30;;
71836;SDS011;59686;51.716;7.016;2022-12-20T08:52:33;4.43;;;3.30;;
71836;SDS011;59686;51.716;7.016;2022-12-20T08:54:59;5.77;;;3.40;;
71836;SDS011;59686;51.716;7.016;2022-12-20T08:57:31;3.40;;;2.83;;
71836;SDS011;59686;51.716;7.016;2022-12-20T08:59:57;4.23;;;3.60;;
71836;SDS011;59686;51.716;7.016;2022-12-20T09:02:22;4.33;;;3.37;;
71836;SDS011;59686;51.716;7.016;2022-12-20T09:04:48;4.83;;;2.97;;
71836;SDS011;59686;51.716;7.016;2022-12-20T09:07:14;5.67;;;3.47;;
71836;SDS011;59686;51.716;7.016;2022-12-20T09:09:39;4.23;;;3.00;;
71836;SDS011;59686;51.716;7.016;2022-12-20T09:12:05;5.93;;;3.20;;
71836;SDS011;59686;51.716;7.016;2022-12-20T09:14:31;4.53;;;3.27;;
71836;SDS011;59686;51.716;7.016;2022-12-20T09:16:57;3.00;;;2.70;;
71836;SDS011;59686;51.716;7.016;2022-12-20T09:19:23;4.77;;;2.93;;
71836;SDS011;59686;51.716;7.016;2022-12-20T09:21:48;3.17;;;2.73;;
71836;SDS011;59686;51.716;7.016;2022-12-20T09:24:14;5.13;;;2.80;;
71836;SDS011;59686;51.716;7.016;2022-12-20T09:26:40;5.87;;;2.77;;
71836;SDS011;59686;51.716;7.016;2022-12-20T09:29:05;5.17;;;2.60;;
71836;SDS011;59686;51.716;7.016;2022-12-20T09:31:31;3.33;;;2.80;;
71836;SDS011;59686;51.716;7.016;2022-12-20T09:33:57;4.67;;;3.13;;
71836;SDS011;59686;51.716;7.016;2022-12-20T09:36:24;4.27;;;2.87;;
71836;SDS011;59686;51.716;7.016;2022-12-20T09:38:52;3.93;;;2.80;;
71836;SDS011;59686;51.716;7.016;2022-12-20T09:41:21;4.30;;;2.80;;
71836;SDS011;59686;51.716;7.016;2022-12-20T09:43:49;3.93;;;2.70;;
71836;SDS011;59686;51.716;7.016;2022-12-20T09:46:15;3.37;;;2.57;;
71836;SDS011;59686;51.716;7.016;2022-12-20T09:48:42;4.47;;;2.60;;
71836;SDS011;59686;51.716;7.016;2022-12-20T09:54:24;4.77;;;2.63;;
71836;SDS011;59686;51.716;7.016;2022-12-20T09:59:26;5.60;;;3.10;;
71836;SDS011;59686;51.716;7.016;2022-12-20T10:01:52;4.37;;;3.13;;
71836;SDS011;59686;51.716;7.016;2022-12-20T10:04:28;5.57;;;3.07;;
71836;SDS011;59686;51.716;7.016;2022-12-20T10:23:37;5.53;;;3.20;;
71836;SDS011;59686;51.716;7.016;2022-12-20T10:26:10;5.13;;;3.47;;
71836;SDS011;59686;51.716;7.016;2022-12-20T10:28:38;5.30;;;3.17;;
71836;SDS011;59686;51.716;7.016;2022-12-20T10:31:12;4.80;;;3.00;;
71836;SDS011;59686;51.716;7.016;2022-12-20T10:33:40;5.10;;;2.90;;
71836;SDS011;59686;51.716;7.016;2022-12-20T10:46:48;4.93;;;3.03;;
71836;SDS011;59686;51.716;7.016;2022-12-20T10:49:22;4.87;;;3.00;;
71836;SDS011;59686;51.716;7.016;2022-12-20T10:51:52;5.87;;;3.50;;
71836;SDS011;59686;51.716;7.016;2022-12-20T10:54:21;4.37;;;2.80;;
71836;SDS011;59686;51.716;7.016;2022-12-20T10:59:48;7.57;;;3.40;;
71836;SDS011;59686;51.716;7.016;2022-12-20T11:10:41;4.67;;;2.97;;
71836;SDS011;59686;51.716;7.016;2022-12-20T11:13:17;3.67;;;3.20;;
71836;SDS011;59686;51.716;7.016;2022-12-20T11:15:50;4.00;;;3.20;;
71836;SDS011;59686;51.716;7.016;2022-12-20T11:18:22;4.23;;;3.30;;
71836;SDS011;59686;51.716;7.016;2022-12-20T11:20:59;5.60;;;3.13;;
71836;SDS011;59686;51.716;7.016;2022-12-20T11:23:33;3.73;;;3.07;;
71836;SDS011;59686;51.716;7.016;2022-12-20T11:34:07;4.80;;;3.00;;
71836;SDS011;59686;51.716;7.016;2022-12-20T11:42:24;3.23;;;2.50;;
71836;SDS011;59686;51.716;7.016;2022-12-20T11:45:14;4.53;;;2.70;;
71836;SDS011;59686;51.716;7.016;2022-12-20T11:53:25;3.17;;;2.83;;
71836;SDS011;59686;51.716;7.016;2022-12-20T11:56:13;3.63;;;2.77;;
71836;SDS011;59686;51.716;7.016;2022-12-20T11:58:49;3.00;;;2.60;;
71836;SDS011;59686;51.716;7.016;2022-12-20T12:04:33;5.13;;;2.70;;
71836;SDS011;59686;51.716;7.016;2022-12-20T12:07:07;4.17;;;2.60;;
71836;SDS011;59686;51.716;7.016;2022-12-20T12:12:43;3.23;;;2.60;;
71836;SDS011;59686;51.716;7.016;2022-12-20T12:15:27;2.60;;;2.20;;
71836;SDS011;59686;51.716;7.016;2022-12-20T12:18:05;3.40;;;2.37;;
71836;SDS011;59686;51.716;7.016;2022-12-20T12:23:06;2.87;;;2.57;;
71836;SDS011;59686;51.716;7.016;2022-12-20T12:25:40;2.90;;;2.30;;
71836;SDS011;59686;51.716;7.016;2022-12-20T12:28:06;3.37;;;2.57;;
71836;SDS011;59686;51.716;7.016;2022-12-20T12:30:35;3.47;;;2.60;;
71836;SDS011;59686;51.716;7.016;2022-12-20T12:33:07;3.80;;;2.50;;
71836;SDS011;59686;51.716;7.016;2022-12-20T12:38:45;3.67;;;2.40;;
71836;SDS011;59686;51.716;7.016;2022-12-20T12:41:21;3.63;;;2.47;;
71836;SDS011;59686;51.716;7.016;2022-12-20T12:46:43;3.53;;;2.80;;
71836;SDS011;59686;51.716;7.016;2022-12-20T12:49:16;2.50;;;2.30;;
71836;SDS011;59686;51.716;7.016;2022-12-20T12:51:50;2.70;;;2.43;;
71836;SDS011;59686;51.716;7.016;2022-12-20T12:54:23;5.77;;;3.10;;
71836;SDS011;59686;51.716;7.016;2022-12-20T12:57:16;4.40;;;2.70;;
71836;SDS011;59686;51.716;7.016;2022-12-20T12:59:48;3.33;;;2.30;;
71836;SDS011;59686;51.716;7.016;2022-12-20T13:07:45;3.97;;;2.50;;
71836;SDS011;59686;51.716;7.016;2022-12-20T13:12:58;4.00;;;2.80;;
71836;SDS011;59686;51.716;7.016;2022-12-20T13:17:51;4.70;;;2.77;;
71836;SDS011;59686;51.716;7.016;2022-12-20T13:20:38;3.13;;;2.40;;
71836;SDS011;59686;51.716;7.016;2022-12-20T13:33:18;3.13;;;2.53;;
71836;SDS011;59686;51.716;7.016;2022-12-20T13:40:59;4.53;;;2.97;;
71836;SDS011;59686;51.716;7.016;2022-12-20T13:43:30;3.90;;;2.87;;
71836;SDS011;59686;51.716;7.016;2022-12-20T13:51:06;4.43;;;2.73;;
71836;SDS011;59686;51.716;7.016;2022-12-20T13:53:33;6.37;;;3.07;;
71836;SDS011;59686;51.716;7.016;2022-12-20T14:01:48;4.63;;;3.10;;
71836;SDS011;59686;51.716;7.016;2022-12-20T14:04:18;3.77;;;2.97;;
71836;SDS011;59686;51.716;7.016;2022-12-20T14:06:55;5.10;;;3.40;;
71836;SDS011;59686;51.716;7.016;2022-12-20T14:09:34;5.23;;;3.03;;
71836;SDS011;59686;51.716;7.016;2022-12-20T14:12:11;5.13;;;3.10;;
71836;SDS011;59686;51.716;7.016;2022-12-20T14:14:42;5.70;;;3.10;;
71836;SDS011;59686;51.716;7.016;2022-12-20T14:17:16;3.97;;;2.90;;
71836;SDS011;59686;51.716;7.016;2022-12-20T14:25:13;4.57;;;3.30;;
71836;SDS011;59686;51.716;7.016;2022-12-20T14:27:42;5.93;;;3.33;;
71836;SDS011;59686;51.716;7.016;2022-12-20T14:32:56;4.40;;;3.20;;
71836;SDS011;59686;51.716;7.016;2022-12-20T14:35:22;5.60;;;4.03;;
71836;SDS011;59686;51.716;7.016;2022-12-20T14:37:56;6.60;;;4.33;;
71836;SDS011;59686;51.716;7.016;2022-12-20T14:40:27;5.03;;;3.90;;
71836;SDS011;59686;51.716;7.016;2022-12-20T14:42:54;4.93;;;4.20;;
71836;SDS011;59686;51.716;7.016;2022-12-20T14:45:24;6.43;;;4.60;;
71836;SDS011;59686;51.716;7.016;2022-12-20T14:48:00;7.77;;;4.23;;
71836;SDS011;59686;51.716;7.016;2022-12-20T14:50:37;5.73;;;4.20;;
71836;SDS011;59686;51.716;7.016;2022-12-20T14:53:16;5.23;;;4.03;;
71836;SDS011;59686;51.716;7.016;2022-12-20T14:55:46;5.67;;;4.00;;
71836;SDS011;59686;51.716;7.016;2022-12-20T14:58:28;5.53;;;4.23;;
71836;SDS011;59686;51.716;7.016;2022-12-20T15:01:00;5.87;;;3.90;;
71836;SDS011;59686;51.716;7.016;2022-12-20T15:03:33;6.27;;;4.13;;
71836;SDS011;59686;51.716;7.016;2022-12-20T15:05:59;5.10;;;3.80;;
71836;SDS011;59686;51.716;7.016;2022-12-20T15:08:26;4.97;;;4.03;;
71836;SDS011;59686;51.716;7.016;2022-12-20T15:11:02;6.20;;;3.77;;
71836;SDS011;59686;51.716;7.016;2022-12-20T15:18:51;9.07;;;4.30;;
71836;SDS011;59686;51.716;7.016;2022-12-20T15:24:02;6.57;;;4.13;;
71836;SDS011;59686;51.716;7.016;2022-12-20T15:26:32;4.87;;;4.27;;
71836;SDS011;59686;51.716;7.016;2022-12-20T15:28:58;5.37;;;3.90;;
71836;SDS011;59686;51.716;7.016;2022-12-20T15:31:37;5.97;;;3.97;;
71836;SDS011;59686;51.716;7.016;2022-12-20T15:34:03;5.40;;;4.10;;
71836;SDS011;59686;51.716;7.016;2022-12-20T15:36:37;4.83;;;3.70;;
71836;SDS011;59686;51.716;7.016;2022-12-20T15:39:03;5.23;;;4.43;;
71836;SDS011;59686;51.716;7.016;2022-12-20T15:41:30;7.07;;;4.17;;
71836;SDS011;59686;51.716;7.016;2022-12-20T15:43:58;6.47;;;4.33;;
71836;SDS011;59686;51.716;7.016;2022-12-20T15:46:27;5.80;;;4.30;;
71836;SDS011;59686;51.716;7.016;2022-12-20T15:48:53;7.77;;;4.30;;
71836;SDS011;59686;51.716;7.016;2022-12-20T15:51:35;7.23;;;4.27;;
71836;SDS011;59686;51.716;7.016;2022-12-20T15:54:05;5.47;;;4.43;;
71836;SDS011;59686;51.716;7.016;2022-12-20T15:56:38;5.73;;;4.27;;
71836;SDS011;59686;51.716;7.016;2022-12-20T15:59:03;7.10;;;4.20;;
71836;SDS011;59686;51.716;7.016;2022-12-20T16:01:43;6.90;;;4.40;;
71836;SDS011;59686;51.716;7.016;2022-12-20T16:04:17;5.93;;;4.60;;
71836;SDS011;59686;51.716;7.016;2022-12-20T16:06:44;5.83;;;4.40;;
71836;SDS011;59686;51.716;7.016;2022-12-20T16:09:11;6.37;;;4.30;;
71836;SDS011;59686;51.716;7.016;2022-12-20T16:11:37;5.93;;;4.40;;
71836;SDS011;59686;51.716;7.016;2022-12-20T16:14:04;7.23;;;4.23;;
71836;SDS011;59686;51.716;7.016;2022-12-20T16:16:34;5.93;;;4.47;;
71836;SDS011;59686;51.716;7.016;2022-12-20T16:19:01;5.87;;;4.20;;
71836;SDS011;59686;51.716;7.016;2022-12-20T16:21:31;6.70;;;4.43;;
71836;SDS011;59686;51.716;7.016;2022-12-20T16:26:34;7.63;;;5.03;;
71836;SDS011;59686;51.716;7.016;2022-12-20T16:29:00;7.30;;;4.67;;
71836;SDS011;59686;51.716;7.016;2022-12-20T16:31:30;6.30;;;4.80;;
71836;SDS011;59686;51.716;7.016;2022-12-20T16:33:59;7.30;;;4.60;;
71836;SDS011;59686;51.716;7.016;2022-12-20T16:36:29;5.57;;;4.50;;
71836;SDS011;59686;51.716;7.016;2022-12-20T16:38:55;8.03;;;5.00;;
71836;SDS011;59686;51.716;7.016;2022-12-20T16:41:23;6.23;;;4.53;;
71836;SDS011;59686;51.716;7.016;2022-12-20T16:46:30;5.57;;;4.67;;
71836;SDS011;59686;51.716;7.016;2022-12-20T16:48:57;8.90;;;5.03;;
71836;SDS011;59686;51.716;7.016;2022-12-20T16:54:06;6.90;;;4.63;;
71836;SDS011;59686;51.716;7.016;2022-12-20T16:56:49;6.27;;;4.60;;
71836;SDS011;59686;51.716;7.016;2022-12-20T16:59:19;8.77;;;5.20;;
71836;SDS011;59686;51.716;7.016;2022-12-20T17:01:45;5.90;;;5.17;;
71836;SDS011;59686;51.716;7.016;2022-12-20T17:04:15;7.73;;;4.93;;
71836;SDS011;59686;51.716;7.016;2022-12-20T17:06:42;5.70;;;4.70;;
71836;SDS011;59686;51.716;7.016;2022-12-20T17:09:09;7.93;;;4.67;;
71836;SDS011;59686;51.716;7.016;2022-12-20T17:11:35;7.93;;;5.07;;
71836;SDS011;59686;51.716;7.016;2022-12-20T17:14:01;5.63;;;4.97;;
71836;SDS011;59686;51.716;7.016;2022-12-20T17:16:27;5.87;;;4.60;;
71836;SDS011;59686;51.716;7.016;2022-12-20T17:18:54;6.57;;;5.23;;
71836;SDS011;59686;51.716;7.016;2022-12-20T17:21:22;6.67;;;4.80;;
71836;SDS011;59686;51.716;7.016;2022-12-20T17:23:51;7.13;;;5.40;;
71836;SDS011;59686;51.716;7.016;2022-12-20T17:26:21;7.10;;;4.93;;
71836;SDS011;59686;51.716;7.016;2022-12-20T17:28:52;6.73;;;5.10;;
71836;SDS011;59686;51.716;7.016;2022-12-20T17:33:50;6.47;;;5.03;;
71836;SDS011;59686;51.716;7.016;2022-12-20T17:36:16;7.17;;;5.03;;
71836;SDS011;59686;51.716;7.016;2022-12-20T17:38:42;6.13;;;5.30;;
71836;SDS011;59686;51.716;7.016;2022-12-20T17:41:30;8.17;;;5.20;;
71836;SDS011;59686;51.716;7.016;2022-12-20T17:43:55;9.50;;;5.23;;
71836;SDS011;59686;51.716;7.016;2022-12-20T17:46:23;7.40;;;5.40;;
71836;SDS011;59686;51.716;7.016;2022-12-20T17:49:05;7.53;;;5.43;;
71836;SDS011;59686;51.716;7.016;2022-12-20T17:51:30;8.47;;;5.83;;
71836;SDS011;59686;51.716;7.016;2022-12-20T17:53:57;8.43;;;6.00;;
71836;SDS011;59686;51.716;7.016;2022-12-20T17:56:30;10.60;;;6.63;;
71836;SDS011;59686;51.716;7.016;2022-12-20T17:59:04;9.97;;;6.83;;
71836;SDS011;59686;51.716;7.016;2022-12-20T18:01:32;12.07;;;7.33;;